Time;durP1;ratioP1;P1;durP2;ratioP2;P2;SDS_P1;SDS_P2;PMS_P1;PMS_P2;Temp;Humidity;BMP_temperature;BMP_pressure;BME280_temperature;BME280_humidity;BME280_pressure;Samples;Min_cycle;Max_cycle;Signal;HPM_P1;HPM_P2
2022/07/20 00:01:36;;;;;;;1.48;0.63;;;;;;;24.46;37.06;99207.50;5011403;28;20049;-65
2022/07/20 00:04:21;;;;;;;1.33;0.60;;;;;;;24.43;42.55;99205.19;5002830;28;20100;-66
2022/07/20 00:07:06;;;;;;;0.90;0.50;;;;;;;24.36;37.74;99206.94;5015085;28;20037;-66
2022/07/20 00:12:54;;;;;;;0.98;0.40;;;;;;;24.31;38.86;99204.00;5005803;28;20034;-65
2022/07/20 00:15:39;;;;;;;0.93;0.40;;;;;;;24.30;37.45;99194.31;5012711;28;20034;-66
2022/07/20 00:18:24;;;;;;;1.20;0.50;;;;;;;24.32;37.25;99205.66;5011709;28;20431;-66
2022/07/20 00:21:09;;;;;;;2.35;0.50;;;;;;;24.31;38.01;99204.84;5011233;28;20550;-66
2022/07/20 00:23:54;;;;;;;2.78;0.55;;;;;;;24.33;35.50;99196.63;5012560;28;20470;-67
2022/07/20 00:26:39;;;;;;;2.20;0.52;;;;;;;24.38;38.19;99202.25;5016555;28;20041;-67
2022/07/20 00:29:23;;;;;;;2.13;0.77;;;;;;;24.34;36.30;99198.28;4998107;28;20062;-67
2022/07/20 00:32:09;;;;;;;1.50;0.65;;;;;;;24.35;36.38;99202.63;5024116;28;20060;-65
2022/07/20 00:34:54;;;;;;;2.20;0.88;;;;;;;24.31;37.75;99204.84;5025237;28;20157;-67
2022/07/20 00:37:40;;;;;;;0.98;0.40;;;;;;;24.25;36.74;99202.91;5011378;28;20133;-65
2022/07/20 00:40:24;;;;;;;1.23;0.50;;;;;;;24.17;38.85;99209.16;5011855;28;20422;-65
2022/07/20 00:43:09;;;;;;;1.75;0.60;;;;;;;24.05;39.04;99203.41;5012470;28;20121;-65
2022/07/20 00:45:54;;;;;;;0.88;0.50;;;;;;;24.01;41.23;99201.28;5004522;28;20435;-65
2022/07/20 00:48:39;;;;;;;1.55;0.50;;;;;;;23.95;40.21;99205.50;5011714;28;20125;-66
2022/07/20 00:51:25;;;;;;;0.60;0.30;;;;;;;23.90;41.03;99200.72;5024441;28;20045;-66
2022/07/20 00:54:10;;;;;;;2.63;0.60;;;;;;;23.87;36.92;99201.06;5012100;28;20056;-65
2022/07/20 00:56:54;;;;;;;1.13;0.50;;;;;;;23.87;38.93;99206.41;5010712;28;20046;-66
2022/07/20 00:59:39;;;;;;;1.45;0.68;;;;;;;23.85;39.33;99195.06;5012364;28;20374;-66
2022/07/20 01:02:24;;;;;;;0.98;0.40;;;;;;;23.78;39.29;99199.50;4999893;28;20363;-66
2022/07/20 01:05:13;;;;;;;0.82;0.43;;;;;;;23.73;38.25;99192.84;5009653;28;20149;-65
2022/07/20 01:07:58;;;;;;;5.55;1.58;;;;;;;23.71;38.44;99200.22;5012035;28;20324;-65
2022/07/20 01:10:43;;;;;;;1.40;0.60;;;;;;;23.66;41.03;99196.41;5012050;28;20061;-65
2022/07/20 01:13:29;;;;;;;2.20;0.63;;;;;;;23.66;40.43;99204.44;4996191;28;20065;-65
2022/07/20 01:16:13;;;;;;;1.27;0.65;;;;;;;23.60;43.83;99192.63;5012360;28;20088;-66
2022/07/20 01:18:59;;;;;;;1.20;0.60;;;;;;;23.56;41.26;99202.00;5011085;28;20427;-66
2022/07/20 01:21:43;;;;;;;1.10;0.50;;;;;;;23.53;42.31;99203.22;5010718;28;20045;-67
2022/07/20 01:24:28;;;;;;;1.40;0.57;;;;;;;23.47;42.01;99203.94;4996547;28;20506;-65
2022/07/20 01:27:13;;;;;;;1.00;0.70;;;;;;;23.38;38.02;99195.94;5010620;28;20038;-66
2022/07/20 01:29:57;;;;;;;0.70;0.47;;;;;;;23.33;42.41;99198.31;5011565;28;20053;-67
2022/07/20 01:32:42;;;;;;;1.70;0.50;;;;;;;23.32;41.41;99198.50;5024070;28;20494;-66
2022/07/20 01:35:27;;;;;;;2.13;0.60;;;;;;;23.24;38.67;99199.38;5005607;28;20068;-66
2022/07/20 01:38:12;;;;;;;1.38;0.75;;;;;;;23.25;41.70;99196.53;5011382;28;20092;-66
2022/07/20 01:40:57;;;;;;;1.73;0.70;;;;;;;23.23;42.41;99189.69;4999031;28;20073;-66
2022/07/20 01:43:42;;;;;;;0.90;0.50;;;;;;;23.24;41.53;99186.03;5008716;28;20069;-66
2022/07/20 01:46:27;;;;;;;1.40;0.45;;;;;;;23.24;42.23;99188.69;5007996;28;20042;-66
2022/07/20 01:49:12;;;;;;;1.60;0.68;;;;;;;23.19;40.59;99189.22;5009742;28;20065;-66
2022/07/20 01:51:56;;;;;;;1.48;0.57;;;;;;;23.22;41.27;99188.88;4998210;28;20115;-67
2022/07/20 01:54:41;;;;;;;2.63;0.60;;;;;;;23.24;42.61;99189.50;5010904;28;20042;-67
2022/07/20 01:57:29;;;;;;;1.20;0.55;;;;;;;23.23;41.97;99174.50;5010016;28;20050;-67
2022/07/20 02:00:14;;;;;;;2.60;0.77;;;;;;;23.21;41.31;99176.50;4995432;28;20061;-66
2022/07/20 02:02:59;;;;;;;1.45;0.60;;;;;;;23.20;42.86;99182.88;5011016;28;20112;-66
2022/07/20 02:05:44;;;;;;;2.20;0.60;;;;;;;23.17;43.08;99169.03;5010102;28;20042;-67
2022/07/20 02:08:28;;;;;;;0.60;0.40;;;;;;;23.13;43.73;99176.56;5011121;28;20041;-66
2022/07/20 02:11:13;;;;;;;0.70;0.40;;;;;;;23.09;43.46;99177.94;5010125;28;20054;-66
2022/07/20 02:13:58;;;;;;;1.05;0.63;;;;;;;23.04;40.86;99174.97;5009688;28;20073;-64
2022/07/20 02:16:42;;;;;;;1.23;0.68;;;;;;;23.01;44.92;99173.50;5013882;28;20096;-65
2022/07/20 02:19:27;;;;;;;2.22;0.63;;;;;;;22.93;42.74;99177.03;5011304;28;20042;-65
2022/07/20 02:22:12;;;;;;;0.98;0.70;;;;;;;22.85;42.54;99182.44;5023856;28;20037;-65
2022/07/20 02:24:57;;;;;;;0.75;0.55;;;;;;;22.84;44.25;99188.75;5011065;28;20046;-66
2022/07/20 02:27:42;;;;;;;2.03;0.50;;;;;;;22.74;41.52;99184.47;5011135;28;20045;-66
2022/07/20 02:30:26;;;;;;;1.77;0.68;;;;;;;22.64;42.37;99192.69;5009721;28;20050;-66
2022/07/20 02:33:11;;;;;;;4.22;0.88;;;;;;;22.63;40.87;99180.38;4996214;28;20766;-66
2022/07/20 02:35:57;;;;;;;1.98;0.82;;;;;;;22.63;41.72;99183.03;5009188;28;20492;-67
2022/07/20 02:38:42;;;;;;;1.10;0.60;;;;;;;22.66;42.33;99189.84;5010248;28;20052;-67
2022/07/20 02:41:27;;;;;;;1.15;0.60;;;;;;;22.61;42.04;99185.03;5010194;28;20037;-66
2022/07/20 02:44:11;;;;;;;1.92;0.65;;;;;;;22.54;40.40;99188.56;5011046;28;20033;-67
2022/07/20 02:46:56;;;;;;;1.85;0.60;;;;;;;22.54;42.41;99191.22;5010572;28;20497;-67
2022/07/20 02:49:41;;;;;;;2.40;0.73;;;;;;;22.47;41.19;99183.06;5012521;28;20045;-67
2022/07/20 02:52:25;;;;;;;1.98;0.70;;;;;;;22.45;44.23;99182.41;5010358;28;20141;-66
2022/07/20 02:55:12;;;;;;;7.88;3.10;;;;;;;22.40;42.61;99181.09;5012467;28;20033;-68
2022/07/20 02:57:57;;;;;;;2.30;0.80;;;;;;;22.24;42.44;99186.47;5014525;28;20069;-66
2022/07/20 03:00:42;;;;;;;3.08;0.70;;;;;;;22.28;43.86;99199.31;5009851;28;20052;-65
2022/07/20 03:03:27;;;;;;;2.05;0.70;;;;;;;22.27;43.30;99188.81;5027289;28;20397;-67
2022/07/20 03:06:16;;;;;;;1.15;0.63;;;;;;;22.20;44.81;99187.81;5010566;28;20386;-66
2022/07/20 03:09:01;;;;;;;2.55;0.70;;;;;;;22.22;44.84;99193.81;5016756;28;20061;-66
2022/07/20 03:11:45;;;;;;;1.10;0.60;;;;;;;22.21;45.20;99182.31;5008005;28;20038;-63
2022/07/20 03:14:30;;;;;;;1.48;0.60;;;;;;;22.12;44.65;99186.00;5023943;28;20045;-66
2022/07/20 03:17:15;;;;;;;1.95;0.88;;;;;;;22.21;43.86;99192.16;5012559;28;20034;-66
2022/07/20 03:20:00;;;;;;;2.80;0.80;;;;;;;22.20;43.66;99193.16;5011378;28;20041;-66
2022/07/20 03:22:44;;;;;;;1.00;0.60;;;;;;;22.17;43.74;99189.00;5025771;28;20459;-67
2022/07/20 03:25:29;;;;;;;1.45;0.80;;;;;;;22.16;43.74;99192.69;5010212;28;20034;-68
2022/07/20 03:28:14;;;;;;;2.67;0.88;;;;;;;22.12;43.35;99204.69;4998692;28;20176;-68
2022/07/20 03:30:59;;;;;;;2.90;0.70;;;;;;;22.06;44.58;99194.69;4995102;28;20041;-67
2022/07/20 03:33:43;;;;;;;3.08;0.90;;;;;;;22.06;43.24;99200.88;4998652;28;20038;-67
2022/07/20 03:36:28;;;;;;;1.55;0.77;;;;;;;22.11;44.10;99203.03;5011308;28;20041;-67
2022/07/20 03:39:13;;;;;;;4.07;0.90;;;;;;;22.10;42.66;99207.50;5011303;28;20046;-66
2022/07/20 03:41:58;;;;;;;4.00;0.77;;;;;;;21.98;42.26;99209.72;5009903;28;20390;-66
2022/07/20 03:44:43;;;;;;;4.97;0.80;;;;;;;21.98;42.08;99209.72;5011405;28;20543;-67
2022/07/20 03:47:27;;;;;;;2.20;0.85;;;;;;;21.96;42.09;99211.72;5010639;28;20150;-67
2022/07/20 03:50:12;;;;;;;5.07;0.80;;;;;;;22.00;42.72;99212.22;5011291;28;20038;-67
2022/07/20 03:52:56;;;;;;;2.60;0.80;;;;;;;21.99;44.07;99213.19;5010929;28;20030;-67
2022/07/20 03:55:41;;;;;;;2.95;0.75;;;;;;;21.96;43.52;99214.38;5011495;28;20041;-67
2022/07/20 03:58:26;;;;;;;1.88;1.15;;;;;;;21.90;42.32;99201.72;5011040;28;20126;-67
2022/07/20 04:01:11;;;;;;;2.42;0.90;;;;;;;21.97;43.11;99209.88;5012513;28;20034;-67
2022/07/20 04:03:55;;;;;;;3.13;0.98;;;;;;;21.97;44.79;99208.03;5011564;28;20045;-67
2022/07/20 04:07:02;;;;;;;1.60;0.82;;;;;;;22.00;42.65;99210.38;5011000;28;20034;-66
2022/07/20 04:10:13;;;;;;;4.15;1.10;;;;;;;21.99;42.78;99213.19;5012000;28;20038;-66
2022/07/20 04:12:57;;;;;;;1.38;0.85;;;;;;;22.09;42.60;99210.34;5012370;28;20041;-67
2022/07/20 04:15:42;;;;;;;2.70;1.13;;;;;;;22.11;43.11;99213.69;5008176;28;20034;-70
2022/07/20 04:18:26;;;;;;;5.53;1.20;;;;;;;22.08;42.53;99217.50;5011911;28;20081;-71
2022/07/20 04:21:11;;;;;;;2.03;0.90;;;;;;;22.10;42.53;99225.38;5012209;28;20438;-74
2022/07/20 04:23:56;;;;;;;2.92;0.95;;;;;;;22.25;42.77;99223.66;5011816;28;20034;-75
2022/07/20 04:26:45;;;;;;;2.70;0.90;;;;;;;22.19;42.84;99218.16;5025007;28;20479;-73
2022/07/20 04:29:30;;;;;;;2.50;0.77;;;;;;;22.28;44.12;99225.16;4984239;28;20034;-69
2022/07/20 04:32:15;;;;;;;2.10;0.93;;;;;;;22.33;42.44;99229.97;5024283;28;20058;-69
2022/07/20 04:35:00;;;;;;;3.45;1.17;;;;;;;22.33;42.71;99222.81;5011907;28;20053;-71
2022/07/20 04:37:44;;;;;;;1.60;1.10;;;;;;;22.34;42.23;99232.50;5012480;28;20121;-70
2022/07/20 04:40:34;;;;;;;4.57;0.82;;;;;;;22.39;42.07;99235.47;5023397;28;20045;-69
2022/07/20 04:43:21;;;;;;;2.13;0.88;;;;;;;22.44;43.17;99240.28;4996619;28;20046;-70
2022/07/20 04:46:06;;;;;;;4.63;1.02;;;;;;;22.51;41.96;99249.28;5001362;28;20042;-73
2022/07/20 04:48:51;;;;;;;2.85;0.95;;;;;;;22.62;42.02;99249.94;5026111;28;20041;-74
2022/07/20 04:51:36;;;;;;;4.30;1.02;;;;;;;22.60;41.76;99243.94;5013213;28;20103;-74
2022/07/20 04:54:22;;;;;;;2.40;1.17;;;;;;;22.61;41.81;99248.25;5010958;28;20044;-73
2022/07/20 04:57:07;;;;;;;1.85;1.00;;;;;;;22.68;41.84;99256.44;5011519;28;20068;-74
2022/07/20 04:59:52;;;;;;;2.22;1.00;;;;;;;22.73;41.56;99252.25;4996637;28;20356;-74
2022/07/20 05:02:37;;;;;;;3.88;1.58;;;;;;;22.91;41.73;99261.00;5011601;28;20092;-73
2022/07/20 05:05:22;;;;;;;3.85;1.52;;;;;;;22.83;41.89;99260.03;5013308;28;20467;-73
2022/07/20 05:08:06;;;;;;;3.85;1.73;;;;;;;22.87;41.70;99265.84;4980108;28;20033;-73
2022/07/20 05:10:51;;;;;;;1.90;1.08;;;;;;;23.04;41.08;99260.44;5002649;28;20039;-74
2022/07/20 05:13:36;;;;;;;2.13;1.30;;;;;;;23.21;41.48;99262.00;4996741;28;20041;-73
2022/07/20 05:16:21;;;;;;;3.15;1.23;;;;;;;23.11;40.79;99258.75;5010470;28;20046;-73
2022/07/20 05:19:05;;;;;;;6.50;1.45;;;;;;;23.14;41.65;99255.72;4996081;28;20050;-75
2022/07/20 05:21:51;;;;;;;2.35;1.20;;;;;;;23.28;40.94;99266.66;5011164;28;20367;-74
2022/07/20 05:24:36;;;;;;;1.67;1.05;;;;;;;23.29;40.76;99249.63;5012278;28;20453;-73
2022/07/20 05:27:20;;;;;;;1.98;1.25;;;;;;;23.31;41.07;99252.94;4999250;28;20041;-75
2022/07/20 05:30:05;;;;;;;2.53;1.17;;;;;;;23.30;41.15;99245.94;5009946;28;20038;-74
2022/07/20 05:32:50;;;;;;;2.08;1.23;;;;;;;23.19;42.03;99247.19;5010478;28;20053;-75
2022/07/20 05:35:35;;;;;;;6.82;1.27;;;;;;;23.35;40.65;99249.75;4996877;28;20061;-74
2022/07/20 05:38:20;;;;;;;2.88;1.20;;;;;;;23.46;40.57;99243.19;5010031;28;20065;-74
2022/07/20 05:41:05;;;;;;;3.17;1.13;;;;;;;23.50;40.78;99249.81;5011582;28;20394;-74
2022/07/20 05:43:51;;;;;;;4.15;1.83;;;;;;;23.53;40.77;99255.84;5010776;28;20053;-74
2022/07/20 05:46:36;;;;;;;5.55;1.33;;;;;;;23.73;40.83;99246.31;4996420;28;20049;-74
2022/07/20 05:49:22;;;;;;;6.35;1.33;;;;;;;23.85;40.50;99259.25;5010320;28;20375;-74
2022/07/20 05:52:07;;;;;;;2.42;1.30;;;;;;;23.96;40.30;99258.00;5009693;28;20034;-74
2022/07/20 05:54:52;;;;;;;2.55;1.25;;;;;;;23.95;40.21;99253.66;4996929;28;20467;-74
2022/07/20 05:57:39;;;;;;;4.05;1.30;;;;;;;24.26;40.30;99254.56;5023082;28;20037;-75
2022/07/20 06:00:24;;;;;;;2.10;1.35;;;;;;;24.58;39.36;99252.56;5010879;28;20062;-74
2022/07/20 06:03:08;;;;;;;3.25;1.45;;;;;;;24.59;40.37;99263.09;5010725;28;20041;-75
2022/07/20 06:05:53;;;;;;;4.68;1.48;;;;;;;24.36;38.97;99260.47;5011436;28;20041;-74
2022/07/20 06:08:38;;;;;;;3.65;1.30;;;;;;;24.58;40.17;99258.72;5024581;28;20096;-75
2022/07/20 06:11:23;;;;;;;2.45;1.35;;;;;;;24.54;38.58;99253.94;5009566;28;20037;-74
2022/07/20 06:14:08;;;;;;;8.60;1.40;;;;;;;24.58;38.50;99257.91;5023937;28;20048;-73
2022/07/20 06:16:53;;;;;;;7.90;2.00;;;;;;;24.61;38.55;99265.56;5023102;28;20041;-73
2022/07/20 06:19:37;;;;;;;1.70;0.90;;;;;;;24.86;39.12;99270.63;4996548;28;20038;-75
2022/07/20 06:22:22;;;;;;;5.38;1.30;;;;;;;25.02;37.89;99274.16;5007725;28;20069;-75
2022/07/20 06:25:09;;;;;;;6.05;1.20;;;;;;;25.05;38.02;99271.09;5022823;28;20045;-74
2022/07/20 06:27:57;;;;;;;4.45;1.45;;;;;;;25.17;37.54;99279.44;5010514;28;20049;-76
2022/07/20 06:30:42;;;;;;;3.58;1.05;;;;;;;25.19;37.09;99275.59;5012125;28;20479;-76
2022/07/20 06:33:27;;;;;;;3.20;1.17;;;;;;;25.32;36.84;99277.56;5010843;28;20065;-75
2022/07/20 06:36:11;;;;;;;7.45;1.35;;;;;;;25.64;36.48;99271.94;5013148;28;20053;-74
2022/07/20 06:38:57;;;;;;;2.70;1.23;;;;;;;25.88;36.60;99271.72;5014184;28;20037;-75
2022/07/20 06:41:42;;;;;;;5.07;1.23;;;;;;;25.73;36.01;99269.13;5013171;28;20041;-74
2022/07/20 06:44:28;;;;;;;8.98;1.85;;;;;;;25.79;35.75;99269.19;5000209;28;20448;-74
2022/07/20 06:47:13;;;;;;;2.72;1.40;;;;;;;26.06;35.20;99257.84;5005669;28;20038;-74
2022/07/20 06:49:58;;;;;;;2.88;1.60;;;;;;;26.38;34.67;99262.81;4999493;28;20065;-74
2022/07/20 06:52:43;;;;;;;3.03;1.30;;;;;;;26.43;34.22;99266.59;5012578;28;20538;-74
2022/07/20 06:55:28;;;;;;;3.67;1.92;;;;;;;26.72;34.21;99263.81;5013374;28;20503;-73
2022/07/20 06:58:12;;;;;;;2.70;1.17;;;;;;;26.71;33.43;99264.88;5014752;28;20056;-74
2022/07/20 07:00:59;;;;;;;3.15;1.35;;;;;;;26.69;33.11;99269.59;5015212;28;20038;-74
2022/07/20 07:03:44;;;;;;;5.05;0.95;;;;;;;26.67;32.95;99269.78;5016376;28;20092;-74
2022/07/20 07:06:30;;;;;;;2.67;1.35;;;;;;;27.12;32.99;99270.44;5013309;28;20042;-74
2022/07/20 07:09:16;;;;;;;6.15;1.17;;;;;;;27.26;32.16;99268.59;5015058;28;20058;-74
2022/07/20 07:12:00;;;;;;;3.42;1.35;;;;;;;27.51;31.96;99262.66;5001456;28;20372;-75
2022/07/20 07:14:45;;;;;;;8.95;1.08;;;;;;;27.76;31.45;99270.16;4999271;28;20501;-74
2022/07/20 07:17:30;;;;;;;3.92;1.05;;;;;;;27.86;31.22;99269.75;5013827;28;20052;-74
2022/07/20 07:20:15;;;;;;;4.70;1.10;;;;;;;28.13;30.85;99265.19;4984844;28;20084;-73
2022/07/20 07:22:59;;;;;;;2.17;1.00;;;;;;;28.35;30.42;99262.25;5015459;28;20069;-74
2022/07/20 07:25:44;;;;;;;4.90;1.30;;;;;;;28.60;30.44;99263.44;5009341;28;20472;-74
2022/07/20 07:28:30;;;;;;;3.42;1.10;;;;;;;28.69;30.36;99264.88;5016737;28;20415;-74
2022/07/20 07:31:17;;;;;;;8.43;1.30;;;;;;;28.67;30.28;99260.72;5014560;28;20442;-74
2022/07/20 07:34:02;;;;;;;3.38;1.17;;;;;;;29.23;29.40;99258.44;5026360;28;20045;-74
2022/07/20 07:36:46;;;;;;;5.53;1.90;;;;;;;29.07;29.54;99255.19;5014651;28;20042;-74
2022/07/20 07:39:31;;;;;;;4.88;1.50;;;;;;;29.32;29.05;99256.28;5013174;28;20057;-74
2022/07/20 07:42:16;;;;;;;6.18;1.50;;;;;;;29.13;29.99;99257.00;5011050;28;20431;-75
2022/07/20 07:45:04;;;;;;;6.88;2.53;;;;;;;29.38;29.14;99263.50;5011841;28;20065;-75
2022/07/20 07:47:49;;;;;;;5.78;1.75;;;;;;;29.95;28.82;99256.47;5001424;28;20471;-75
2022/07/20 07:50:34;;;;;;;6.00;2.67;;;;;;;30.24;28.65;99254.97;4998622;28;20116;-74
2022/07/20 07:53:19;;;;;;;6.80;2.15;;;;;;;30.43;28.19;99252.28;4999531;28;20038;-74
2022/07/20 07:56:04;;;;;;;9.10;2.10;;;;;;;30.05;28.39;99258.69;5012235;28;20045;-75
2022/07/20 07:58:49;;;;;;;7.78;2.10;;;;;;;30.10;28.76;99265.06;5012739;28;20042;-74
2022/07/20 08:01:35;;;;;;;5.72;1.65;;;;;;;30.15;28.44;99266.25;5013114;28;20092;-75
2022/07/20 08:04:19;;;;;;;4.07;2.05;;;;;;;30.29;28.17;99265.13;5012664;28;20048;-73
2022/07/20 08:07:04;;;;;;;7.13;1.60;;;;;;;30.43;28.06;99260.41;5000875;28;20034;-74
2022/07/20 08:09:48;;;;;;;7.22;2.33;;;;;;;31.20;28.09;99258.22;5011506;28;20472;-74
2022/07/20 08:12:36;;;;;;;7.38;1.70;;;;;;;31.44;26.78;99269.13;5013341;28;20427;-74
2022/07/20 08:15:20;;;;;;;2.97;1.35;;;;;;;31.75;29.74;99265.53;5005370;28;20390;-74
2022/07/20 08:18:06;;;;;;;6.38;1.25;;;;;;;32.66;25.99;99267.06;5012254;28;20041;-74
2022/07/20 08:20:51;;;;;;;7.75;0.90;;;;;;;32.37;25.18;99264.28;4998213;28;20128;-73
2022/07/20 08:23:36;;;;;;;2.35;1.27;;;;;;;31.75;27.80;99268.25;5011890;28;20077;-73
2022/07/20 08:26:20;;;;;;;2.40;1.42;;;;;;;32.35;26.08;99263.69;4997320;28;20049;-73
2022/07/20 08:29:06;;;;;;;1.92;1.00;;;;;;;32.47;26.26;99263.66;5001853;28;20385;-73
2022/07/20 08:31:50;;;;;;;3.53;1.13;;;;;;;33.10;31.06;99263.03;5012310;28;20058;-73
2022/07/20 08:34:35;;;;;;;2.65;1.60;;;;;;;32.81;26.16;99263.84;5024815;28;20371;-73
2022/07/20 08:37:20;;;;;;;3.42;1.00;;;;;;;32.24;26.61;99264.50;5011763;28;20069;-74
2022/07/20 08:40:06;;;;;;;3.65;1.00;;;;;;;32.48;26.68;99269.91;5012909;28;20053;-72
2022/07/20 08:42:51;;;;;;;1.45;1.00;;;;;;;32.48;26.44;99256.38;5011634;28;20026;-73
2022/07/20 08:45:36;;;;;;;5.68;1.10;;;;;;;32.79;26.83;99260.53;4997338;28;20053;-72
2022/07/20 08:48:21;;;;;;;2.65;0.90;;;;;;;32.46;27.48;99267.44;5024534;28;20034;-72
2022/07/20 08:51:07;;;;;;;5.13;1.65;;;;;;;33.04;25.90;99264.00;4982123;28;20049;-72
2022/07/20 08:53:54;;;;;;;5.38;1.50;;;;;;;33.04;27.62;99266.72;5012018;28;20037;-72
2022/07/20 08:56:38;;;;;;;2.35;1.23;;;;;;;33.80;26.16;99267.53;4997531;28;20470;-72
2022/07/20 08:59:23;;;;;;;1.70;1.20;;;;;;;33.47;25.24;99272.66;5011515;28;20041;-73
2022/07/20 09:02:09;;;;;;;4.43;0.95;;;;;;;32.97;26.73;99266.84;5012582;28;20402;-74
2022/07/20 09:04:59;;;;;;;4.95;1.20;;;;;;;33.44;26.12;99267.72;5024020;28;20045;-73
2022/07/20 09:07:46;;;;;;;1.35;0.90;;;;;;;33.22;28.69;99264.88;5012369;28;20034;-73
2022/07/20 09:10:36;;;;;;;2.47;1.02;;;;;;;33.31;27.26;99268.88;5011329;28;20037;-72
2022/07/20 09:13:28;;;;;;;2.03;1.50;;;;;;;33.59;28.78;99267.16;5010295;28;20045;-72
2022/07/20 09:16:12;;;;;;;1.95;1.35;;;;;;;34.08;25.37;99271.19;5024239;28;20037;-72
2022/07/20 09:18:57;;;;;;;2.65;1.35;;;;;;;35.02;25.24;99261.53;5006868;28;20099;-72
2022/07/20 09:21:43;;;;;;;2.13;1.17;;;;;;;34.26;24.79;99267.38;5028174;28;20038;-72
2022/07/20 09:24:28;;;;;;;3.45;1.85;;;;;;;33.83;26.86;99266.19;5011793;28;20049;-73
2022/07/20 09:27:13;;;;;;;5.25;1.23;;;;;;;34.86;25.86;99250.47;5009680;28;20053;-72
2022/07/20 09:30:10;;;;;;;2.53;1.08;;;;;;;35.54;24.15;99253.03;5014647;28;20050;-72
2022/07/20 09:32:59;;;;;;;5.47;1.40;;;;;;;35.82;23.43;99249.19;5020990;28;20076;-72
2022/07/20 09:35:47;;;;;;;3.28;1.48;;;;;;;34.88;25.26;99247.50;5010166;28;20080;-72
2022/07/20 09:38:38;;;;;;;2.33;1.20;;;;;;;34.53;24.37;99254.97;5011083;28;20085;-72
2022/07/20 09:41:29;;;;;;;6.35;1.20;;;;;;;34.50;23.81;99247.31;5001966;28;20038;-70
2022/07/20 09:44:22;;;;;;;1.65;1.08;;;;;;;35.54;24.60;99240.25;5010831;28;20129;-73
2022/07/20 09:47:11;;;;;;;8.50;1.23;;;;;;;34.96;24.99;99243.50;5010701;28;20399;-70
2022/07/20 09:49:55;;;;;;;3.47;1.15;;;;;;;35.50;23.92;99245.38;5011350;28;20116;-70
2022/07/20 09:52:40;;;;;;;4.50;0.90;;;;;;;35.78;23.24;99237.16;5021766;28;20049;-72
2022/07/20 09:55:26;;;;;;;1.40;0.70;;;;;;;35.37;25.46;99233.03;5024308;28;20054;-71
2022/07/20 09:58:11;;;;;;;3.40;0.88;;;;;;;35.67;25.87;99232.69;5010940;28;20053;-71
2022/07/20 10:00:57;;;;;;;1.42;0.80;;;;;;;36.14;24.81;99242.00;5005767;28;20068;-71
2022/07/20 10:03:44;;;;;;;2.28;0.68;;;;;;;36.98;31.29;99226.81;5002574;28;20034;-71
2022/07/20 10:06:29;;;;;;;4.15;0.68;;;;;;;37.83;22.03;99221.91;5004934;28;20525;-73
2022/07/20 10:09:16;;;;;;;1.65;0.70;;;;;;;36.70;26.64;99224.28;5014146;28;20041;-73
2022/07/20 10:12:01;;;;;;;1.98;1.00;;;;;;;37.29;26.55;99220.59;5014735;28;20394;-73
2022/07/20 10:14:51;;;;;;;3.35;1.08;;;;;;;36.00;24.41;99215.25;5014569;28;20067;-74
2022/07/20 10:17:36;;;;;;;1.13;0.60;;;;;;;36.49;23.95;99220.66;5015546;28;20041;-74
2022/07/20 10:20:36;;;;;;;9.15;1.45;;;;;;;37.87;22.16;99215.94;5026139;28;20041;-74
2022/07/20 10:23:28;;;;;;;5.70;1.13;;;;;;;37.17;22.58;99220.81;5014220;28;20105;-74
2022/07/20 10:26:32;;;;;;;4.07;0.90;;;;;;;37.17;22.84;99212.63;5015167;28;20038;-74
2022/07/20 10:29:32;;;;;;;5.10;0.90;;;;;;;37.65;27.05;99215.13;5004917;28;20041;-74
2022/07/20 10:32:28;;;;;;;4.30;0.93;;;;;;;38.06;24.33;99211.47;5015041;28;20058;-74
2022/07/20 10:35:30;;;;;;;2.72;0.98;;;;;;;37.96;21.16;99220.53;5013408;28;20042;-73
2022/07/20 10:38:18;;;;;;;2.67;0.88;;;;;;;37.72;21.84;99206.66;5004437;28;20092;-72
2022/07/20 10:44:25;;;;;;;1.65;0.70;;;;;;;37.66;22.68;99199.53;5014193;28;20083;-75
2022/07/20 10:47:39;;;;;;;2.38;0.80;;;;;;;37.06;22.68;99212.66;5015742;28;20040;-74
2022/07/20 10:50:28;;;;;;;1.70;1.00;;;;;;;37.96;25.04;99215.06;5002939;28;20084;-74
2022/07/20 10:53:15;;;;;;;2.70;0.70;;;;;;;37.30;22.11;99190.28;5000437;28;20087;-75
2022/07/20 10:56:03;;;;;;;2.40;0.70;;;;;;;37.38;23.26;99188.91;5012886;28;20042;-74
2022/07/20 10:58:47;;;;;;;1.38;0.60;;;;;;;37.47;22.51;99192.72;5013554;28;20049;-75
2022/07/20 11:01:32;;;;;;;2.55;0.70;;;;;;;37.50;21.15;99199.56;5026210;28;20049;-75
2022/07/20 11:04:17;;;;;;;2.20;0.52;;;;;;;39.06;29.49;99181.72;5012590;28;20057;-75
2022/07/20 11:07:01;;;;;;;0.80;0.55;;;;;;;39.72;21.53;99175.97;5005702;28;20089;-75
2022/07/20 11:09:46;;;;;;;2.13;0.70;;;;;;;38.47;22.60;99182.34;5013716;28;20402;-74
2022/07/20 11:12:31;;;;;;;0.77;0.65;;;;;;;37.58;19.96;99173.59;5013038;28;20498;-75
2022/07/20 11:15:16;;;;;;;1.05;0.82;;;;;;;38.61;20.60;99174.34;5013032;28;20061;-75
2022/07/20 11:18:01;;;;;;;1.02;0.57;;;;;;;39.25;22.94;99173.66;5003426;28;20045;-74
2022/07/20 11:20:48;;;;;;;1.20;0.45;;;;;;;39.39;24.42;99173.78;5012298;28;20038;-74
2022/07/20 11:23:40;;;;;;;1.65;0.70;;;;;;;38.43;25.32;99179.38;5013258;28;20054;-76
2022/07/20 11:26:25;;;;;;;1.00;0.45;;;;;;;38.37;21.37;99168.75;5014057;28;20038;-76
2022/07/20 11:29:13;;;;;;;6.07;0.70;;;;;;;38.16;23.01;99168.81;5012026;28;20096;-76
2022/07/20 11:32:07;;;;;;;3.40;0.80;;;;;;;39.88;19.60;99154.69;5026358;28;20147;-75
2022/07/20 11:34:53;;;;;;;2.50;0.85;;;;;;;39.10;20.97;99177.31;5013143;28;20030;-75
2022/07/20 11:37:39;;;;;;;2.72;0.68;;;;;;;37.63;22.08;99159.94;4998896;28;20057;-75
2022/07/20 11:40:24;;;;;;;1.23;0.60;;;;;;;37.26;26.98;99161.91;4999967;28;20042;-76
2022/07/20 11:43:15;;;;;;;2.80;0.60;;;;;;;38.77;20.28;99150.47;5013556;28;20046;-76
2022/07/20 11:46:28;;;;;;;1.48;0.73;;;;;;;37.36;20.43;99155.63;5001877;28;20034;-75
2022/07/20 11:49:15;;;;;;;1.95;0.50;;;;;;;37.11;21.87;99154.50;5011896;28;20045;-75
2022/07/20 11:52:05;;;;;;;4.95;0.60;;;;;;;37.93;22.23;99150.03;5013515;28;20061;-76
2022/07/20 11:54:53;;;;;;;3.90;0.75;;;;;;;38.59;18.07;99146.44;5011986;28;20029;-75
2022/07/20 11:57:40;;;;;;;3.55;0.60;;;;;;;37.89;24.66;99140.78;5012263;28;20042;-74
2022/07/20 12:00:29;;;;;;;1.40;0.60;;;;;;;39.33;24.92;99139.34;5002252;28;20045;-76
2022/07/20 12:03:19;;;;;;;1.13;0.70;;;;;;;39.81;20.93;99134.22;5013120;28;20065;-76
2022/07/20 12:06:07;;;;;;;2.05;0.55;;;;;;;39.51;23.39;99137.81;5013953;28;20042;-75
2022/07/20 12:09:04;;;;;;;0.90;0.50;;;;;;;39.37;24.04;99142.34;4997559;28;20064;-76
2022/07/20 12:12:07;;;;;;;2.58;0.80;;;;;;;38.30;20.41;99142.53;5012185;28;20087;-75
2022/07/20 12:14:52;;;;;;;2.10;1.40;;;;;;;39.70;18.33;99133.50;5015985;28;20041;-76
2022/07/20 12:17:50;;;;;;;1.75;0.73;;;;;;;40.28;18.70;99120.75;5011154;28;20046;-75
2022/07/20 12:20:35;;;;;;;1.60;0.70;;;;;;;40.61;24.29;99111.81;5011771;28;20088;-76
2022/07/20 12:23:25;;;;;;;4.25;0.65;;;;;;;39.40;17.74;99122.59;4997526;28;20038;-75
2022/07/20 12:26:28;;;;;;;1.95;0.70;;;;;;;40.08;25.28;99125.41;5012016;28;20041;-76
2022/07/20 12:29:21;;;;;;;0.82;0.45;;;;;;;40.05;22.08;99117.75;5013619;28;20041;-73
2022/07/20 12:32:07;;;;;;;3.47;0.95;;;;;;;40.73;22.57;99106.66;5017615;28;20053;-73
2022/07/20 12:34:54;;;;;;;2.38;0.60;;;;;;;39.33;18.28;99109.22;5001073;28;20394;-75
2022/07/20 12:37:58;;;;;;;1.65;0.60;;;;;;;39.03;21.93;99111.13;5012772;28;20046;-75
2022/07/20 12:40:50;;;;;;;1.58;0.40;;;;;;;38.23;25.50;99105.66;4992871;28;20066;-75
2022/07/20 12:43:40;;;;;;;1.45;0.50;;;;;;;39.65;27.30;99107.81;5019296;28;20037;-76
2022/07/20 12:46:25;;;;;;;2.55;0.60;;;;;;;39.88;17.55;99120.97;5001350;28;20463;-75
2022/07/20 12:49:18;;;;;;;3.22;0.80;;;;;;;39.52;17.12;99100.25;5010989;28;20049;-75
2022/07/20 12:52:03;;;;;;;4.43;0.80;;;;;;;38.35;19.86;99103.41;5025086;28;20056;-75
2022/07/20 12:54:48;;;;;;;4.65;0.65;;;;;;;38.03;20.39;99108.19;5011520;28;20037;-75
2022/07/20 12:57:32;;;;;;;3.55;0.82;;;;;;;38.04;19.36;99109.84;5024295;28;20121;-75
2022/07/20 13:00:20;;;;;;;1.55;0.75;;;;;;;37.99;17.41;99104.38;5012389;28;20391;-76
2022/07/20 13:03:04;;;;;;;0.98;0.60;;;;;;;38.24;22.08;99086.25;5011432;28;20390;-75
2022/07/20 13:05:49;;;;;;;1.80;0.60;;;;;;;38.78;21.99;99089.16;4997298;28;20049;-74
2022/07/20 13:08:34;;;;;;;4.25;0.88;;;;;;;39.51;17.68;99088.50;5008098;28;20097;-75
2022/07/20 13:11:19;;;;;;;2.85;0.70;;;;;;;38.46;18.20;99076.78;4996718;28;20053;-76